Flight Briefing for CPX956

Departure Arrival
Travis Air Force Base (KSUU)
Click to view FAA NOTAMS
Sacramento International Airport (KSMF)
Click to view FAA NOTAMS
Departure Time Arrival Time
N/A N/A
Aircraft Distance
B757-200SF 30nm
Departure METAR Arrival METAR
KSUU 180558Z AUTO 30006KT 10SM CLR 04/00 A3009 RMK AO2 SLP197 6//// T00411001 10067 20037 50016 $ KSMF 180553Z 28005KT 10SM FEW070 04/02 A3009 RMK AO2 SLP188 60000 T00440022 10100 20039 53017
Suggested Route
DCT


View recent IFR Routes data
Notes
EMPTY | NON-REVENUE REPOSITIONING LEG | VFR DEPARTURE RCMD IF WX PERMITS

Charts and Procedures

Charts for KSUU
No chart available
Charts for KSMF
No chart available

Ventusky Weather